메인 페이지
METAR-TAF:

METAR-TAF

공항 :

크라이스트처치 국제공항

크라이스트처치, 뉴질랜드

위도: 43-29S, 경도: 172-33E, 고도: 38m

현재 날씨관측

예보는 29분 전, 17:00시(UTC)에 발표되었습니다.
남남서13kt
온도 13°C
습도 77%
기압 1019 hPa
시정 10km 이상

METAR: NZCH 171700Z AUTO 21013KT 9999 BKN100/// 13/09 Q1019 FM1700 TEMPO 5000 RA BKN008

시각: 06:29 (17:29 UTC)

예보

예보는 5 시간 7분 전, 12:22시(UTC)에 발표되었습니다.
예보 대상 시간: 17일 12시부터 18일 12시까지 (UTC)
여러 방향의 바람 2kt
시정 10km 이상
고도 3000ft 상공 구름 조금
17일 1800시부터 (UTC)
남서12kt
시정 10km 이상
고도 3000ft 상공 구름 보통
고도 5000ft 상공 구름 많음
약한비
18일 0600시부터 (UTC)
동북동5kt
시정 10km 이상
고도 3000ft 상공 구름 조금

TAF: NZCH 171222Z 1712/1812 VRB02KT 9999 FEW030 FM171800 22012KT 9999 -RA SCT030 BKN050 FM180600 06005KT 9999 FEW030

4,000개 이상의 공항 관측 자료 및 예보 (METAR 및 TAF 보고).

지도상에서 검색 가능한 기상관측소가 노란 점과 빨간 점으로 표시되어 있습니다.

기상관측소 명을 보려면 표시 위로 마우스를 이동하세요.

날씨 관측과 예보를 보려면 클릭하세요.

지도 변경 : 확대하려면 엑스 표시가 있는 녹색 버튼, 축소하려면 빼기 표시가 있는 녹색 버튼, 다음 페이지의 지도를 보려면 녹색 화살표를 클릭하세요.


METAR-TAF: